createdAt,value
2018-04-12T00:01:29.372Z,62.40
2018-04-12T00:03:55.936Z,62.40
2018-04-12T00:06:22.536Z,62.80
2018-04-12T00:08:49.104Z,62.90
2018-04-12T00:11:15.638Z,63.10
2018-04-12T00:13:42.196Z,63.00
2018-04-12T00:16:08.755Z,63.10
2018-04-12T00:18:35.292Z,63.50
2018-04-12T00:21:01.861Z,63.40
2018-04-12T00:23:28.800Z,63.20
2018-04-12T00:25:55.332Z,63.20
2018-04-12T00:28:21.968Z,63.00
2018-04-12T00:30:48.546Z,62.40
2018-04-12T00:33:15.075Z,62.40
2018-04-12T00:35:41.637Z,62.40
2018-04-12T00:38:08.209Z,62.30
2018-04-12T00:40:35.103Z,62.00
2018-04-12T00:43:01.656Z,62.00
2018-04-12T00:45:28.215Z,61.80
2018-04-12T00:47:54.744Z,61.40
2018-04-12T00:50:21.303Z,60.20
2018-04-12T00:52:47.896Z,59.70
2018-04-12T00:55:14.799Z,58.80
2018-04-12T00:57:41.365Z,58.80
2018-04-12T01:00:07.964Z,58.60
2018-04-12T01:02:34.496Z,59.20
2018-04-12T01:05:01.424Z,60.10
2018-04-12T01:07:27.993Z,60.10
2018-04-12T01:09:54.897Z,61.50
2018-04-12T01:12:21.463Z,61.50
2018-04-12T01:14:48.028Z,61.90
2018-04-12T01:17:14.560Z,62.40
2018-04-12T01:19:41.121Z,62.90
2018-04-12T01:22:07.687Z,63.20
2018-04-12T01:24:34.212Z,63.50
2018-04-12T01:27:00.779Z,64.00
2018-04-12T01:29:27.712Z,64.40
2018-04-12T01:31:54.297Z,64.50
2018-04-12T01:34:21.236Z,64.70
2018-04-12T01:36:48.172Z,65.20
2018-04-12T01:39:14.703Z,65.20
2018-04-12T01:41:41.266Z,65.60
2018-04-12T01:44:07.881Z,65.70
2018-04-12T01:46:34.416Z,65.60
2018-04-12T01:49:00.980Z,65.80
2018-04-12T01:51:27.624Z,66.10
2018-04-12T01:53:54.249Z,65.80
2018-04-12T01:56:20.843Z,65.80
2018-04-12T01:58:47.421Z,65.50
2018-04-12T02:01:14.350Z,65.40
2018-04-12T02:03:40.928Z,65.40
2018-04-12T02:06:07.509Z,65.90
2018-04-12T02:08:34.068Z,65.90
2018-04-12T02:11:00.673Z,65.60
2018-04-12T02:13:27.678Z,65.80
2018-04-12T02:15:54.277Z,65.80
2018-04-12T02:18:20.857Z,65.80
2018-04-12T02:20:47.465Z,65.90
2018-04-12T02:23:14.013Z,65.40
2018-04-12T02:25:40.598Z,65.90
2018-04-12T02:28:07.173Z,66.40
2018-04-12T02:30:33.740Z,66.40
2018-04-12T02:33:00.313Z,66.10
2018-04-12T02:35:27.309Z,66.00
2018-04-12T02:37:53.907Z,66.00
2018-04-12T02:40:20.473Z,66.00
2018-04-12T02:42:47.425Z,63.40
2018-04-12T02:45:14.336Z,63.60
2018-04-12T02:47:40.905Z,63.60
2018-04-12T02:50:07.473Z,63.50
2018-04-12T02:52:34.385Z,63.40
2018-04-12T02:55:00.984Z,63.40
2018-04-12T02:57:27.937Z,63.60
2018-04-12T02:59:54.832Z,63.90
2018-04-12T03:02:21.409Z,63.90
2018-04-12T03:04:47.981Z,64.00
2018-04-12T03:07:14.887Z,63.90
2018-04-12T03:09:41.464Z,63.90
2018-04-12T03:12:08.041Z,63.80
2018-04-12T03:14:34.948Z,64.40
2018-04-12T03:17:01.509Z,64.40
2018-04-12T03:19:28.080Z,64.40
2018-04-12T03:21:54.997Z,63.90
2018-04-12T03:24:21.616Z,64.00
2018-04-12T03:26:48.176Z,63.80
2018-04-12T03:29:14.717Z,63.50
2018-04-12T03:31:41.279Z,63.20
2018-04-12T03:34:07.857Z,62.40
2018-04-12T03:36:34.384Z,62.20
2018-04-12T03:39:00.945Z,62.80
2018-04-12T03:41:27.504Z,63.20
2018-04-12T03:43:54.036Z,62.00
2018-04-12T03:46:20.614Z,61.80
2018-04-12T03:48:47.554Z,62.40
2018-04-12T03:51:14.088Z,62.40
2018-04-12T03:53:40.692Z,63.10
2018-04-12T03:56:07.260Z,63.20
2018-04-12T03:58:33.788Z,64.00
2018-04-12T04:01:00.344Z,64.70
2018-04-12T04:03:26.914Z,64.70
2018-04-12T04:05:53.448Z,64.70
2018-04-12T04:08:20.008Z,64.70
2018-04-12T04:10:46.575Z,64.40
2018-04-12T04:13:13.110Z,64.20
2018-04-12T04:15:51.880Z,64.40
2018-04-12T04:18:31.121Z,64.60
2018-04-12T04:21:07.863Z,64.70
2018-04-12T04:23:34.424Z,64.70
2018-04-12T04:26:00.957Z,64.80
2018-04-12T04:28:27.525Z,64.90
2018-04-12T04:30:54.119Z,65.20
2018-04-12T04:33:20.644Z,65.30
2018-04-12T04:35:47.622Z,65.50
2018-04-12T04:38:14.556Z,66.00
2018-04-12T04:40:41.460Z,65.90
2018-04-12T04:43:08.033Z,65.90
2018-04-12T04:45:34.600Z,66.00
2018-04-12T04:48:01.174Z,65.70
2018-04-12T04:50:27.743Z,65.80
2018-04-12T04:52:54.317Z,65.20
2018-04-12T04:55:20.888Z,64.80
2018-04-12T04:57:47.504Z,64.70
2018-04-12T05:00:14.131Z,63.90
2018-04-12T05:02:40.772Z,63.20
2018-04-12T05:05:07.393Z,62.90
2018-04-12T05:07:34.376Z,63.20
2018-04-12T05:10:00.981Z,63.20
2018-04-12T05:12:27.592Z,63.50
2018-04-12T05:14:54.172Z,63.60
2018-04-12T05:17:20.724Z,64.10
2018-04-12T05:19:47.300Z,64.50
2018-04-12T05:22:14.288Z,64.70
2018-04-12T05:24:40.828Z,64.70
2018-04-12T05:27:07.400Z,64.80
2018-04-12T05:29:34.029Z,64.80
2018-04-12T05:32:00.589Z,64.70
2018-04-12T05:34:27.180Z,64.60
2018-04-12T05:36:54.120Z,65.00
2018-04-12T05:39:20.657Z,65.00
2018-04-12T05:41:47.220Z,65.00
2018-04-12T05:44:13.788Z,65.50
2018-04-12T05:46:40.685Z,65.90
2018-04-12T05:49:07.252Z,65.90
2018-04-12T05:51:33.808Z,66.10
2018-04-12T05:54:00.400Z,65.50
2018-04-12T05:56:27.332Z,65.20
2018-04-12T05:58:53.928Z,65.20
2018-04-12T06:01:20.460Z,65.60
2018-04-12T06:03:47.024Z,65.50
2018-04-12T06:06:13.589Z,65.40
2018-04-12T06:08:40.112Z,65.30
2018-04-12T06:11:06.679Z,64.50
2018-04-12T06:13:33.247Z,64.40
2018-04-12T06:15:59.772Z,63.80
2018-04-12T06:18:26.337Z,63.60
2018-04-12T06:20:52.909Z,63.30
2018-04-12T06:23:19.484Z,63.30
2018-04-12T06:25:46.053Z,62.20
2018-04-12T06:28:12.612Z,61.90
2018-04-12T06:30:39.145Z,61.40
2018-04-12T06:33:05.712Z,61.70
2018-04-12T06:35:32.276Z,60.50
2018-04-12T06:37:58.803Z,61.40
2018-04-12T06:40:25.368Z,59.50
2018-04-12T06:42:51.932Z,59.30
2018-04-12T06:45:18.513Z,58.50
2018-04-12T06:47:45.080Z,58.40
2018-04-12T06:50:11.700Z,57.20
2018-04-12T06:52:38.600Z,57.40
2018-04-12T06:55:05.212Z,57.40
2018-04-12T06:57:31.788Z,57.30
2018-04-12T06:59:58.323Z,56.80
2018-04-12T07:02:24.884Z,56.50
2018-04-12T07:04:51.444Z,56.60
2018-04-12T07:07:17.980Z,56.90
2018-04-12T07:09:44.544Z,56.30
2018-04-12T07:12:11.116Z,56.40
2018-04-12T07:14:38.044Z,55.10
2018-04-12T07:17:04.624Z,55.20
2018-04-12T07:19:31.556Z,53.90
2018-04-12T07:21:58.093Z,53.90
2018-04-12T07:24:24.660Z,53.60
2018-04-12T07:26:51.268Z,54.30
2018-04-12T07:29:17.804Z,53.60
2018-04-12T07:31:44.371Z,53.30
2018-04-12T07:34:10.937Z,53.00
2018-04-12T07:36:37.485Z,51.20
2018-04-12T07:39:04.893Z,51.90
2018-04-12T07:41:31.455Z,51.80
2018-04-12T07:43:57.991Z,51.80
2018-04-12T07:46:24.573Z,51.20
2018-04-12T07:48:57.975Z,51.50
2018-04-12T07:51:24.585Z,51.50
2018-04-12T07:53:51.644Z,50.40
2018-04-12T07:56:18.589Z,49.10
2018-04-12T07:58:45.157Z,49.10
2018-04-12T08:01:11.716Z,48.30
2018-04-12T08:03:38.265Z,48.70
2018-04-12T08:06:04.855Z,48.80
2018-04-12T08:08:31.415Z,48.80
2018-04-12T08:10:57.945Z,48.30
2018-04-12T08:13:24.504Z,48.10
2018-04-12T08:15:51.123Z,48.30
2018-04-12T08:18:17.647Z,47.20
2018-04-12T08:20:44.265Z,48.40
2018-04-12T08:23:11.264Z,48.00
2018-04-12T08:25:37.797Z,48.00
2018-04-12T08:28:04.368Z,47.50
2018-04-12T08:30:30.937Z,47.60
2018-04-12T08:32:57.480Z,47.70
2018-04-12T08:35:24.040Z,46.30
2018-04-12T08:37:50.608Z,46.30
2018-04-12T08:40:17.504Z,46.10
2018-04-12T08:42:44.093Z,46.20
2018-04-12T08:45:10.668Z,46.40
2018-04-12T08:47:37.580Z,45.70
2018-04-12T08:50:04.158Z,45.70
2018-04-12T08:52:31.088Z,46.70
2018-04-12T08:54:57.688Z,46.70
2018-04-12T08:57:24.240Z,46.30
2018-04-12T08:59:50.816Z,47.60
2018-04-12T09:02:17.337Z,48.10
2018-04-12T09:04:43.904Z,47.50
2018-04-12T09:07:10.473Z,47.80
2018-04-12T09:09:37.007Z,48.50
2018-04-12T09:12:03.576Z,49.00
2018-04-12T09:14:30.146Z,48.80
2018-04-12T09:16:57.061Z,49.10
2018-04-12T09:19:23.629Z,49.10
2018-04-12T09:21:50.192Z,49.20
2018-04-12T09:24:17.095Z,49.20
2018-04-12T09:26:43.661Z,49.20
2018-04-12T09:29:10.231Z,48.80
2018-04-12T09:31:36.764Z,49.20
2018-04-12T09:34:03.412Z,51.00
2018-04-12T09:36:29.999Z,50.20
2018-04-12T09:38:56.897Z,50.90
2018-04-12T09:41:23.516Z,50.90
2018-04-12T09:43:50.435Z,52.40
2018-04-12T09:46:16.970Z,52.40
2018-04-12T09:48:43.550Z,51.80
2018-04-12T09:51:10.488Z,50.50
2018-04-12T09:53:37.021Z,50.50
2018-04-12T09:56:03.623Z,50.40
2018-04-12T09:58:30.192Z,49.80
2018-04-12T10:00:56.797Z,48.40
2018-04-12T10:03:23.770Z,47.70
2018-04-12T10:05:56.292Z,47.80
2018-04-12T10:08:27.788Z,48.00
2018-04-12T10:10:54.364Z,48.40
2018-04-12T10:13:20.939Z,48.00
2018-04-12T10:15:47.496Z,47.60
2018-04-12T10:18:14.075Z,47.30
2018-04-12T10:20:40.616Z,47.00
2018-04-12T10:23:07.185Z,46.90
2018-04-12T10:25:34.202Z,47.70
2018-04-12T10:28:00.724Z,47.70
2018-04-12T10:30:27.289Z,48.40
2018-04-12T10:32:53.875Z,47.30
2018-04-12T10:35:20.403Z,46.40
2018-04-12T10:37:46.981Z,45.70
2018-04-12T10:40:13.912Z,43.00
2018-04-12T10:42:40.441Z,43.00
2018-04-12T10:45:07.055Z,43.30
2018-04-12T10:47:33.617Z,43.80
2018-04-12T10:50:00.144Z,43.90
2018-04-12T10:52:26.703Z,43.50
2018-04-12T10:54:53.260Z,44.00
2018-04-12T10:57:19.865Z,45.90
2018-04-12T10:59:46.845Z,45.80
2018-04-12T11:02:13.462Z,45.80
2018-04-12T11:04:40.368Z,45.00
2018-04-12T11:07:06.923Z,45.00
2018-04-12T11:09:33.479Z,42.80
2018-04-12T11:12:00.003Z,43.10
2018-04-12T11:14:26.589Z,43.70
2018-04-12T11:16:53.158Z,43.60
2018-04-12T11:19:19.708Z,43.60
2018-04-12T11:21:46.692Z,43.40
2018-04-12T11:24:13.304Z,43.40
2018-04-12T11:26:39.840Z,43.20
2018-04-12T11:29:06.403Z,43.20
2018-04-12T11:31:32.993Z,44.00
2018-04-12T11:33:59.549Z,43.20
2018-04-12T11:36:26.140Z,44.00
2018-04-12T11:38:52.704Z,43.30
2018-04-12T11:41:19.612Z,42.60
2018-04-12T11:43:46.186Z,42.60
2018-04-12T11:46:12.752Z,41.70
2018-04-12T11:48:39.661Z,40.50
2018-04-12T11:51:06.233Z,40.50
2018-04-12T11:53:32.801Z,40.90
2018-04-12T11:55:59.779Z,42.00
2018-04-12T11:58:26.339Z,42.00
2018-04-12T12:00:52.901Z,41.70
2018-04-12T12:03:19.431Z,41.70
2018-04-12T12:05:46.001Z,42.00
2018-04-12T12:08:12.560Z,41.70
2018-04-12T12:10:39.115Z,41.60
2018-04-12T12:13:05.703Z,40.60
2018-04-12T12:15:32.647Z,41.40
2018-04-12T12:17:59.540Z,41.30
2018-04-12T12:20:26.111Z,41.30
2018-04-12T12:22:52.684Z,41.20
2018-04-12T12:25:19.212Z,40.20
2018-04-12T12:27:45.771Z,39.10
2018-04-12T12:30:19.221Z,39.30
2018-04-12T12:32:45.771Z,39.30
2018-04-12T12:35:12.336Z,39.50
2018-04-12T12:37:38.862Z,40.00
2018-04-12T12:40:05.429Z,40.30
2018-04-12T12:42:31.989Z,40.00
2018-04-12T12:44:58.531Z,39.90
2018-04-12T12:47:25.096Z,41.10
2018-04-12T12:49:51.659Z,40.40
2018-04-12T12:52:18.196Z,40.90
2018-04-12T12:54:44.760Z,40.70
2018-04-12T12:57:11.356Z,39.60
2018-04-12T12:59:37.929Z,39.00
2018-04-12T13:02:04.537Z,39.60
2018-04-12T13:04:31.112Z,39.30
2018-04-12T13:06:57.640Z,39.90
2018-04-12T13:09:24.228Z,38.90
2018-04-12T13:11:50.800Z,39.10
2018-04-12T13:14:17.703Z,39.30
2018-04-12T13:16:44.260Z,39.30
2018-04-12T13:19:10.823Z,38.90
2018-04-12T13:21:37.448Z,39.10
2018-04-12T13:24:04.111Z,38.90
2018-04-12T13:26:30.676Z,38.90
2018-04-12T13:28:57.200Z,38.10
2018-04-12T13:31:23.819Z,38.90
2018-04-12T13:33:50.385Z,38.20
2018-04-12T13:36:16.915Z,37.90
2018-04-12T13:38:43.480Z,37.90
2018-04-12T13:41:10.044Z,38.50
2018-04-12T13:43:36.608Z,39.10
2018-04-12T13:46:03.225Z,39.20
2018-04-12T13:48:29.840Z,38.90
2018-04-12T13:50:56.740Z,39.70
2018-04-12T13:53:23.302Z,39.80
2018-04-12T13:55:49.875Z,39.60
2018-04-12T13:58:16.435Z,40.30
2018-04-12T14:00:43.384Z,41.40
2018-04-12T14:03:10.331Z,38.30
2018-04-12T14:05:36.900Z,38.30
2018-04-12T14:08:03.475Z,37.40
2018-04-12T14:10:30.042Z,36.80
2018-04-12T14:12:56.576Z,38.10
2018-04-12T14:15:23.136Z,37.40
2018-04-12T14:17:49.700Z,37.60
2018-04-12T14:20:16.236Z,37.90
2018-04-12T14:22:42.796Z,37.80
2018-04-12T14:25:09.355Z,38.30
2018-04-12T14:27:35.908Z,38.00
2018-04-12T14:30:02.914Z,38.50
2018-04-12T14:32:29.480Z,38.50
2018-04-12T14:34:56.016Z,38.30
2018-04-12T14:37:22.593Z,38.60
2018-04-12T14:39:49.156Z,38.80
2018-04-12T14:42:16.100Z,39.00
2018-04-12T14:44:42.684Z,39.00
2018-04-12T14:47:09.248Z,39.40
2018-04-12T14:49:35.784Z,39.60
2018-04-12T14:52:02.375Z,39.20
2018-04-12T14:54:28.948Z,39.20
2018-04-12T14:56:55.924Z,37.90
2018-04-12T14:59:22.856Z,38.10
2018-04-12T15:01:49.420Z,38.10
2018-04-12T15:04:16.320Z,38.10
2018-04-12T15:06:42.939Z,38.10
2018-04-12T15:09:09.507Z,38.20
2018-04-12T15:11:36.040Z,38.40
2018-04-12T15:14:02.622Z,39.10
2018-04-12T15:16:29.204Z,38.70
2018-04-12T15:18:55.730Z,38.90
2018-04-12T15:21:22.299Z,39.30
2018-04-12T15:23:48.899Z,38.80
2018-04-12T15:26:15.432Z,39.50
2018-04-12T15:28:42.046Z,38.90
2018-04-12T15:31:08.997Z,38.60
2018-04-12T15:33:35.540Z,38.60
2018-04-12T15:36:02.105Z,38.20
2018-04-12T15:38:29.036Z,38.90
2018-04-12T15:40:55.564Z,38.90
2018-04-12T15:43:22.128Z,39.00
2018-04-12T15:45:48.707Z,39.80
2018-04-12T15:48:15.264Z,39.50
2018-04-12T15:50:41.896Z,39.40
2018-04-12T15:53:08.840Z,39.00
2018-04-12T15:55:35.375Z,39.00
2018-04-12T15:58:01.977Z,39.20
2018-04-12T16:00:28.541Z,39.00
2018-04-12T16:02:55.068Z,39.30
2018-04-12T16:05:21.653Z,38.90
2018-04-12T16:07:48.221Z,39.30
2018-04-12T16:10:14.748Z,39.50
2018-04-12T16:12:41.309Z,39.80
2018-04-12T16:15:08.740Z,39.90
2018-04-12T16:17:35.308Z,40.60
2018-04-12T16:20:01.884Z,40.60
2018-04-12T16:22:28.824Z,41.20
2018-04-12T16:24:55.367Z,41.20
2018-04-12T16:27:22.044Z,41.80
2018-04-12T16:29:48.980Z,42.20
2018-04-12T16:32:15.505Z,42.20
2018-04-12T16:34:42.304Z,42.20
2018-04-12T16:37:08.896Z,42.20
2018-04-12T16:39:35.425Z,42.20
2018-04-12T16:42:01.992Z,42.50
2018-04-12T16:44:28.563Z,42.80
2018-04-12T16:46:55.099Z,43.20
2018-04-12T16:49:21.721Z,43.20
2018-04-12T16:51:48.332Z,43.50
2018-04-12T16:54:15.236Z,43.80
2018-04-12T16:56:41.797Z,43.80
2018-04-12T16:59:08.391Z,43.60
2018-04-12T17:01:35.298Z,43.90
2018-04-12T17:04:01.864Z,43.90
2018-04-12T17:06:28.481Z,44.30
2018-04-12T17:08:55.011Z,44.50
2018-04-12T17:11:21.568Z,44.60
2018-04-12T17:13:48.177Z,44.90
2018-04-12T17:16:14.756Z,45.10
2018-04-12T17:18:41.319Z,45.30
2018-04-12T17:21:07.882Z,45.60
2018-04-12T17:23:34.424Z,45.70
2018-04-12T17:26:00.995Z,46.00
2018-04-12T17:28:27.612Z,46.30
2018-04-12T17:30:54.152Z,46.40
2018-04-12T17:33:20.720Z,46.50
2018-04-12T17:35:47.292Z,46.60
2018-04-12T17:38:13.876Z,46.60
2018-04-12T17:40:40.447Z,46.70
2018-04-12T17:43:07.016Z,46.90
2018-04-12T17:45:33.600Z,46.80
2018-04-12T17:48:01.971Z,47.00
2018-04-12T17:50:28.536Z,47.00
2018-04-12T17:52:55.442Z,47.60
2018-04-12T17:55:21.995Z,47.60
2018-04-12T17:57:48.596Z,47.70
2018-04-12T18:00:15.544Z,48.80
2018-04-12T18:02:43.328Z,49.30
2018-04-12T18:05:10.261Z,49.80
2018-04-12T18:07:36.789Z,49.80
2018-04-12T18:10:03.699Z,50.00
2018-04-12T18:12:30.291Z,50.10
2018-04-12T18:14:56.816Z,50.10
2018-04-12T18:17:23.375Z,49.90
2018-04-12T18:19:49.994Z,49.60
2018-04-12T18:22:16.519Z,49.00
2018-04-12T18:24:43.448Z,48.90
2018-04-12T18:27:10.020Z,48.90
2018-04-12T18:29:36.916Z,49.00
2018-04-12T18:32:03.500Z,49.00
2018-04-12T18:34:30.084Z,48.60
2018-04-12T18:36:56.620Z,48.60
2018-04-12T18:39:23.818Z,49.30
2018-04-12T18:41:51.682Z,49.30
2018-04-12T18:44:18.216Z,49.90
2018-04-12T18:46:45.157Z,51.30
2018-04-12T18:49:12.336Z,51.30
2018-04-12T18:51:38.989Z,51.00
2018-04-12T18:54:05.921Z,50.40
2018-04-12T18:56:32.888Z,50.90
2018-04-12T18:59:00.732Z,51.60
2018-04-12T19:01:27.308Z,51.60
2018-04-12T19:03:53.870Z,51.50
2018-04-12T19:06:20.815Z,51.40
2018-04-12T19:08:47.759Z,51.40
2018-04-12T19:11:14.324Z,51.70
2018-04-12T19:13:41.231Z,50.70
2018-04-12T19:16:07.796Z,50.70
2018-04-12T19:18:34.375Z,51.20
2018-04-12T19:21:01.357Z,51.10
2018-04-12T19:23:28.901Z,51.10
2018-04-12T19:25:55.918Z,50.20
2018-04-12T19:28:22.567Z,50.20
2018-04-12T19:30:49.148Z,50.70
2018-04-12T19:33:16.076Z,52.20
2018-04-12T19:35:42.665Z,52.20
2018-04-12T19:38:09.244Z,52.10
2018-04-12T19:40:35.808Z,52.80
2018-04-12T19:43:02.423Z,53.40
2018-04-12T19:45:29.037Z,53.60
2018-04-12T19:47:55.976Z,53.00
2018-04-12T19:50:22.508Z,53.00
2018-04-12T19:52:49.073Z,52.30
2018-04-12T19:55:15.636Z,52.20
2018-04-12T19:57:42.168Z,52.00
2018-04-12T20:00:08.824Z,52.10
2018-04-12T20:02:35.391Z,51.80
2018-04-12T20:05:02.337Z,52.30
2018-04-12T20:07:28.905Z,52.30
2018-04-12T20:09:55.843Z,52.60
2018-04-12T20:12:22.416Z,52.60
2018-04-12T20:14:48.996Z,53.10
2018-04-12T20:17:15.564Z,53.90
2018-04-12T20:19:42.108Z,54.20
2018-04-12T20:22:08.672Z,54.10
2018-04-12T20:24:35.249Z,54.30
2018-04-12T20:27:01.784Z,54.70
2018-04-12T20:29:28.733Z,55.10
2018-04-12T20:32:02.600Z,55.70
2018-04-12T20:34:29.728Z,55.60
2018-04-12T20:36:56.424Z,56.00
2018-04-12T20:39:24.291Z,56.70
2018-04-12T20:41:50.853Z,56.70
2018-04-12T20:44:17.423Z,56.90
2018-04-12T20:46:43.952Z,56.40
2018-04-12T20:49:10.516Z,56.80
2018-04-12T20:51:37.080Z,56.50
2018-04-12T20:54:03.992Z,57.40
2018-04-12T20:56:30.552Z,57.40
2018-04-12T20:58:57.152Z,57.70
2018-04-12T21:01:23.689Z,58.30
2018-04-12T21:03:50.627Z,60.40
2018-04-12T21:06:17.575Z,60.40
2018-04-12T21:08:44.110Z,60.30
2018-04-12T21:11:10.679Z,60.00
2018-04-12T21:13:37.257Z,60.30
2018-04-12T21:16:03.799Z,59.60
2018-04-12T21:18:30.368Z,59.90
2018-04-12T21:20:56.964Z,59.50
2018-04-12T21:23:23.504Z,59.30
2018-04-12T21:25:50.078Z,60.10
2018-04-12T21:28:17.065Z,61.00
2018-04-12T21:30:43.600Z,61.00
2018-04-12T21:33:10.200Z,61.10
2018-04-12T21:35:36.772Z,61.20
2018-04-12T21:38:03.694Z,61.00
2018-04-12T21:40:30.268Z,61.00
2018-04-12T21:42:57.253Z,59.00
2018-04-12T21:45:23.793Z,59.00
2018-04-12T21:47:50.368Z,59.30
2018-04-12T21:50:16.937Z,59.80
2018-04-12T21:52:43.469Z,59.80
2018-04-12T21:55:10.036Z,59.30
2018-04-12T21:57:36.604Z,59.50
2018-04-12T22:00:03.244Z,58.90
2018-04-12T22:02:29.808Z,59.20
2018-04-12T22:04:56.739Z,59.10
2018-04-12T22:07:23.259Z,59.10
2018-04-12T22:09:49.828Z,59.40
2018-04-12T22:12:16.400Z,59.90
2018-04-12T22:14:42.940Z,60.90
2018-04-12T22:17:09.556Z,61.20
2018-04-12T22:19:36.155Z,61.90
2018-04-12T22:22:03.073Z,61.90
2018-04-12T22:24:29.649Z,61.90
2018-04-12T22:26:56.628Z,62.00
2018-04-12T22:29:23.164Z,62.00
2018-04-12T22:31:49.734Z,61.80
2018-04-12T22:34:16.295Z,62.00
2018-04-12T22:36:42.888Z,63.00
2018-04-12T22:39:09.452Z,63.10
2018-04-12T22:41:36.021Z,63.70
2018-04-12T22:44:02.567Z,63.60
2018-04-12T22:46:29.132Z,63.60
2018-04-12T22:48:55.708Z,62.60
2018-04-12T22:51:22.244Z,62.70
2018-04-12T22:53:48.812Z,62.90
2018-04-12T22:56:15.376Z,62.90
2018-04-12T22:58:41.906Z,64.10
2018-04-12T23:01:08.528Z,64.70
2018-04-12T23:03:35.168Z,65.90
2018-04-12T23:06:01.692Z,65.60
2018-04-12T23:08:28.262Z,65.50
2018-04-12T23:10:54.828Z,65.20
2018-04-12T23:13:21.427Z,64.90
2018-04-12T23:15:48.355Z,64.70
2018-04-12T23:18:14.922Z,64.70
2018-04-12T23:20:41.820Z,64.20
2018-04-12T23:23:08.387Z,64.30
2018-04-12T23:25:34.952Z,64.10
2018-04-12T23:28:01.488Z,64.50
2018-04-12T23:30:28.060Z,64.50
2018-04-12T23:32:55.012Z,64.30
2018-04-12T23:35:21.540Z,64.30
2018-04-12T23:37:48.108Z,64.60
2018-04-12T23:40:15.048Z,65.80
2018-04-12T23:42:41.584Z,65.80
2018-04-12T23:45:08.154Z,66.40
2018-04-12T23:47:35.103Z,66.90
2018-04-12T23:50:01.641Z,66.80
2018-04-12T23:52:28.208Z,66.90
2018-04-12T23:54:54.799Z,66.30
2018-04-12T23:57:21.336Z,66.50
2018-04-12T23:59:47.936Z,66.50
